Time;durP1;ratioP1;P1;durP2;ratioP2;P2;SDS_P1;SDS_P2;PMS_P1;PMS_P2;Temp;Humidity;BMP_temperature;BMP_pressure;BME280_temperature;BME280_humidity;BME280_pressure;Samples;Min_cycle;Max_cycle;Signal;HPM_P1;HPM_P2
2023/04/21 00:00:17;;;;;;;4.10;2.03;;;;;;;;;;5112863;28;20501;-63
2023/04/21 00:02:45;;;;;;;4.07;2.10;;;;;;;;;;5110693;28;20115;-63
2023/04/21 00:05:14;;;;;;;3.70;2.30;;;;;;;;;;5110368;28;20023;-63
2023/04/21 00:07:41;;;;;;;4.53;2.87;;;;;;;;;;5110426;28;20031;-63
2023/04/21 00:10:09;;;;;;;3.50;2.30;;;;;;;;;;5092359;28;20036;-63
2023/04/21 00:12:36;;;;;;;3.90;2.23;;;;;;;;;;5094864;28;20028;-63
2023/04/21 00:15:03;;;;;;;3.20;2.50;;;;;;;;;;5095002;28;20382;-63
2023/04/21 00:17:30;;;;;;;3.50;1.87;;;;;;;;;;5094860;28;20027;-63
2023/04/21 00:19:57;;;;;;;5.20;2.27;;;;;;;;;;5094983;28;20020;-63
2023/04/21 00:22:24;;;;;;;3.50;2.20;;;;;;;;;;5092430;28;20024;-64
2023/04/21 00:24:51;;;;;;;3.47;2.30;;;;;;;;;;5089509;28;20030;-63
2023/04/21 00:27:17;;;;;;;2.43;1.70;;;;;;;;;;5089762;28;20056;-63
2023/04/21 00:29:44;;;;;;;4.47;2.57;;;;;;;;;;5089558;28;20036;-64
2023/04/21 00:32:11;;;;;;;3.47;2.23;;;;;;;;;;5091014;28;20391;-63
2023/04/21 00:34:38;;;;;;;4.27;2.10;;;;;;;;;;5094613;28;20062;-63
2023/04/21 00:37:04;;;;;;;3.93;2.37;;;;;;;;;;5094661;28;20070;-63
2023/04/21 00:39:31;;;;;;;3.20;2.27;;;;;;;;;;5094689;28;20031;-62
2023/04/21 00:41:58;;;;;;;2.20;1.80;;;;;;;;;;5094102;28;20051;-63
2023/04/21 00:44:25;;;;;;;5.47;2.43;;;;;;;;;;5093048;28;20087;-63
2023/04/21 00:46:51;;;;;;;3.07;2.17;;;;;;;;;;5089245;28;20020;-63
2023/04/21 00:49:18;;;;;;;3.30;2.03;;;;;;;;;;5089150;28;20118;-63
2023/04/21 00:51:45;;;;;;;4.00;2.30;;;;;;;;;;5089503;28;20020;-63
2023/04/21 00:54:12;;;;;;;11.17;1.97;;;;;;;;;;5089713;28;20077;-63
2023/04/21 00:56:39;;;;;;;3.27;2.17;;;;;;;;;;5094272;28;20020;-63
2023/04/21 00:59:05;;;;;;;2.27;1.57;;;;;;;;;;5094019;28;20012;-63
2023/04/21 01:01:36;;;;;;;4.60;2.50;;;;;;;;;;5093617;28;20042;-63
2023/04/21 01:04:03;;;;;;;2.63;1.87;;;;;;;;;;5094060;28;20024;-63
2023/04/21 01:06:31;;;;;;;4.90;3.20;;;;;;;;;;5093468;28;20880;-63
2023/04/21 01:08:58;;;;;;;5.43;2.43;;;;;;;;;;5088873;28;20107;-63
2023/04/21 01:11:25;;;;;;;4.00;1.73;;;;;;;;;;5088761;28;20072;-63
2023/04/21 01:13:56;;;;;;;3.10;2.27;;;;;;;;;;5088924;28;20514;-63
2023/04/21 01:16:23;;;;;;;9.23;2.20;;;;;;;;;;5088373;28;20466;-65
2023/04/21 01:18:52;;;;;;;3.10;2.33;;;;;;;;;;5093912;28;20481;-63
2023/04/21 01:21:20;;;;;;;3.13;2.33;;;;;;;;;;5093648;28;20036;-63
2023/04/21 01:23:47;;;;;;;4.10;2.43;;;;;;;;;;5093522;28;20505;-63
2023/04/21 01:26:17;;;;;;;4.13;3.07;;;;;;;;;;5093684;28;20031;-64
2023/04/21 01:28:44;;;;;;;4.43;2.60;;;;;;;;;;5093203;28;20040;-63
2023/04/21 01:31:10;;;;;;;4.67;2.27;;;;;;;;;;5088506;28;20107;-63
2023/04/21 01:33:37;;;;;;;3.10;2.03;;;;;;;;;;5088004;28;20058;-63
2023/04/21 01:36:04;;;;;;;1.87;1.60;;;;;;;;;;5088563;28;20032;-63
2023/04/21 01:38:31;;;;;;;2.63;1.60;;;;;;;;;;5088338;28;20024;-63
2023/04/21 01:40:58;;;;;;;4.23;2.40;;;;;;;;;;5092788;28;20073;-63
2023/04/21 01:43:25;;;;;;;2.00;1.30;;;;;;;;;;5093288;28;20052;-63
2023/04/21 01:45:52;;;;;;;3.57;2.47;;;;;;;;;;5093328;28;20088;-63
2023/04/21 01:48:19;;;;;;;9.77;2.60;;;;;;;;;;5093084;28;20024;-63
2023/04/21 01:50:45;;;;;;;4.23;2.80;;;;;;;;;;5092948;28;20081;-63
2023/04/21 01:53:12;;;;;;;5.40;3.83;;;;;;;;;;5088424;28;20433;-63
2023/04/21 01:55:39;;;;;;;7.60;4.90;;;;;;;;;;5087384;28;20032;-63
2023/04/21 01:58:06;;;;;;;11.53;5.80;;;;;;;;;;5087966;28;20040;-63
2023/04/21 02:00:33;;;;;;;10.57;6.37;;;;;;;;;;5087987;28;20031;-64
2023/04/21 02:03:00;;;;;;;8.03;4.77;;;;;;;;;;5091873;28;20095;-63
2023/04/21 02:05:27;;;;;;;5.77;4.07;;;;;;;;;;5092924;28;20031;-63
2023/04/21 02:07:53;;;;;;;5.30;3.67;;;;;;;;;;5092736;28;20028;-63
2023/04/21 02:10:20;;;;;;;12.03;3.80;;;;;;;;;;5092808;28;20063;-63
2023/04/21 02:12:47;;;;;;;13.53;2.43;;;;;;;;;;5092802;28;20024;-63
2023/04/21 02:15:14;;;;;;;5.43;3.67;;;;;;;;;;5088768;28;20024;-64
2023/04/21 02:17:43;;;;;;;6.50;2.93;;;;;;;;;;5087897;28;20016;-63
2023/04/21 02:20:11;;;;;;;8.80;3.03;;;;;;;;;;5087708;28;20028;-63
2023/04/21 02:22:38;;;;;;;3.47;2.23;;;;;;;;;;5087732;28;20458;-63
2023/04/21 02:25:05;;;;;;;3.83;2.27;;;;;;;;;;5090712;28;20020;-63
2023/04/21 02:27:32;;;;;;;3.93;1.93;;;;;;;;;;5092438;28;20028;-64
2023/04/21 02:29:59;;;;;;;2.73;1.93;;;;;;;;;;5092596;28;20558;-63
2023/04/21 02:32:25;;;;;;;2.03;1.53;;;;;;;;;;5092591;28;20517;-63
2023/04/21 02:34:52;;;;;;;2.37;1.83;;;;;;;;;;5092415;28;20028;-63
2023/04/21 02:37:19;;;;;;;3.23;2.13;;;;;;;;;;5089184;28;20035;-64
2023/04/21 02:39:46;;;;;;;2.60;1.73;;;;;;;;;;5087539;28;20039;-63
2023/04/21 02:42:13;;;;;;;3.30;2.40;;;;;;;;;;5087531;28;20020;-63
2023/04/21 02:44:41;;;;;;;2.63;1.90;;;;;;;;;;5087216;28;20028;-63
2023/04/21 02:47:08;;;;;;;2.30;1.80;;;;;;;;;;5089946;28;20101;-63
2023/04/21 02:49:35;;;;;;;16.30;3.17;;;;;;;;;;5092378;28;20035;-64
2023/04/21 02:52:02;;;;;;;3.03;1.73;;;;;;;;;;5092391;28;20028;-64
2023/04/21 02:54:28;;;;;;;3.00;2.07;;;;;;;;;;5092307;28;20020;-63
2023/04/21 02:56:55;;;;;;;7.27;3.33;;;;;;;;;;5092422;28;20099;-64
2023/04/21 02:59:22;;;;;;;16.73;4.10;;;;;;;;;;5089662;28;20043;-63
2023/04/21 03:01:49;;;;;;;16.00;3.87;;;;;;;;;;5087006;28;20056;-64
2023/04/21 03:04:16;;;;;;;5.00;3.70;;;;;;;;;;5086966;28;20020;-63
2023/04/21 03:06:42;;;;;;;7.47;4.53;;;;;;;;;;5090530;28;20043;-63
2023/04/21 03:09:09;;;;;;;5.47;4.50;;;;;;;;;;5093201;28;20383;-63
2023/04/21 03:11:36;;;;;;;7.27;4.87;;;;;;;;;;5096240;28;20474;-63
2023/04/21 03:14:03;;;;;;;9.43;4.33;;;;;;;;;;5096306;28;20085;-63
2023/04/21 03:16:29;;;;;;;6.83;4.53;;;;;;;;;;5096212;28;20024;-63
2023/04/21 03:18:56;;;;;;;21.07;5.70;;;;;;;;;;5095700;28;20101;-63
2023/04/21 03:21:23;;;;;;;12.50;6.43;;;;;;;;;;5093869;28;20054;-63
2023/04/21 03:23:50;;;;;;;9.30;5.70;;;;;;;;;;5091237;28;20035;-63
2023/04/21 03:26:16;;;;;;;22.33;6.90;;;;;;;;;;5090971;28;20020;-63
2023/04/21 03:28:43;;;;;;;18.50;7.87;;;;;;;;;;5090816;28;20500;-64
2023/04/21 03:31:10;;;;;;;7.87;6.53;;;;;;;;;;5092329;28;20075;-63
2023/04/21 03:33:37;;;;;;;11.07;6.90;;;;;;;;;;5095768;28;20060;-63
2023/04/21 03:36:03;;;;;;;30.73;7.83;;;;;;;;;;5095783;28;20017;-63
2023/04/21 03:38:30;;;;;;;9.43;6.53;;;;;;;;;;5095432;28;20020;-63
2023/04/21 03:40:57;;;;;;;12.63;6.57;;;;;;;;;;5095757;28;20103;-63
2023/04/21 03:43:24;;;;;;;9.77;6.97;;;;;;;;;;5094406;28;20024;-63
2023/04/21 03:45:50;;;;;;;14.07;6.03;;;;;;;;;;5090511;28;20382;-63
2023/04/21 03:48:17;;;;;;;7.57;5.60;;;;;;;;;;5090350;28;20452;-63
2023/04/21 03:50:44;;;;;;;8.17;6.30;;;;;;;;;;5090487;28;20050;-63
2023/04/21 03:53:11;;;;;;;8.17;5.83;;;;;;;;;;5091045;28;20374;-63
2023/04/21 03:55:37;;;;;;;10.43;6.57;;;;;;;;;;5094864;28;20440;-63
2023/04/21 03:58:04;;;;;;;10.17;6.23;;;;;;;;;;5095353;28;20016;-62
2023/04/21 04:00:31;;;;;;;16.80;5.70;;;;;;;;;;5095338;28;20027;-62
2023/04/21 04:02:58;;;;;;;9.00;6.67;;;;;;;;;;5095383;28;20020;-62
2023/04/21 04:05:25;;;;;;;5.37;4.57;;;;;;;;;;5094804;28;20016;-63
2023/04/21 04:07:51;;;;;;;11.83;6.67;;;;;;;;;;5090267;28;20039;-63
2023/04/21 04:10:18;;;;;;;8.77;5.40;;;;;;;;;;5090047;28;20040;-62
2023/04/21 04:12:45;;;;;;;8.67;5.83;;;;;;;;;;5089963;28;20390;-63
2023/04/21 04:15:12;;;;;;;11.70;6.37;;;;;;;;;;5089703;28;20031;-63
2023/04/21 04:17:38;;;;;;;11.80;6.03;;;;;;;;;;5094250;28;20091;-63
2023/04/21 04:20:07;;;;;;;5.77;4.57;;;;;;;;;;5095103;28;20032;-62
2023/04/21 04:22:34;;;;;;;9.80;5.40;;;;;;;;;;5094870;28;20481;-62
2023/04/21 04:25:01;;;;;;;11.27;6.53;;;;;;;;;;5094954;28;20024;-62
2023/04/21 04:27:28;;;;;;;6.40;4.73;;;;;;;;;;5094893;28;20028;-62
2023/04/21 04:29:55;;;;;;;9.93;5.43;;;;;;;;;;5089474;28;20044;-63
2023/04/21 04:32:21;;;;;;;21.03;5.27;;;;;;;;;;5089441;28;20028;-63
2023/04/21 04:34:48;;;;;;;10.70;6.07;;;;;;;;;;5089552;28;20393;-62
2023/04/21 04:37:15;;;;;;;7.53;5.47;;;;;;;;;;5089773;28;20494;-63
2023/04/21 04:39:42;;;;;;;9.03;5.17;;;;;;;;;;5093673;28;20024;-62
2023/04/21 04:42:08;;;;;;;7.27;4.70;;;;;;;;;;5094544;28;20031;-62
2023/04/21 04:44:35;;;;;;;10.03;5.37;;;;;;;;;;5094431;28;20028;-62
2023/04/21 04:47:02;;;;;;;11.37;6.23;;;;;;;;;;5094404;28;20102;-62
2023/04/21 04:49:29;;;;;;;14.10;6.33;;;;;;;;;;5093854;28;20115;-62
2023/04/21 04:51:56;;;;;;;6.87;5.13;;;;;;;;;;5090151;28;20435;-62
2023/04/21 04:54:24;;;;;;;35.67;5.50;;;;;;;;;;5089388;28;20024;-62
2023/04/21 04:56:50;;;;;;;23.00;5.07;;;;;;;;;;5089283;28;20035;-62
2023/04/21 04:59:17;;;;;;;5.63;4.43;;;;;;;;;;5089136;28;20382;-62
2023/04/21 05:01:44;;;;;;;10.57;5.10;;;;;;;;;;5092476;28;20474;-62
2023/04/21 05:04:15;;;;;;;5.37;4.43;;;;;;;;;;5094025;28;20020;-62
2023/04/21 05:06:41;;;;;;;6.70;3.97;;;;;;;;;;5093647;28;20032;-62
2023/04/21 05:09:09;;;;;;;8.97;5.57;;;;;;;;;;5093869;28;20038;-62
2023/04/21 05:11:35;;;;;;;5.57;4.53;;;;;;;;;;5093961;28;20031;-63
2023/04/21 05:14:02;;;;;;;18.73;4.87;;;;;;;;;;5090344;28;20043;-62
2023/04/21 05:16:29;;;;;;;9.00;6.03;;;;;;;;;;5088903;28;20028;-63
2023/04/21 05:18:56;;;;;;;7.87;5.00;;;;;;;;;;5088826;28;20035;-63
2023/04/21 05:21:24;;;;;;;4.33;3.53;;;;;;;;;;5088612;28;20102;-62
2023/04/21 05:23:51;;;;;;;8.03;5.53;;;;;;;;;;5091246;28;20428;-63
2023/04/21 05:26:17;;;;;;;6.23;4.53;;;;;;;;;;5093620;28;20474;-62
2023/04/21 05:28:44;;;;;;;5.67;4.17;;;;;;;;;;5092832;28;20478;-62
2023/04/21 05:31:11;;;;;;;6.53;4.83;;;;;;;;;;5093342;28;20020;-62
2023/04/21 05:33:38;;;;;;;7.07;3.93;;;;;;;;;;5093473;28;20034;-62
2023/04/21 05:36:08;;;;;;;5.17;4.03;;;;;;;;;;5090471;28;20024;-62
2023/04/21 05:38:35;;;;;;;4.03;3.43;;;;;;;;;;5088388;28;20027;-62
2023/04/21 05:41:02;;;;;;;7.30;3.33;;;;;;;;;;5088305;28;20040;-63
2023/04/21 05:43:32;;;;;;;4.47;3.17;;;;;;;;;;5088320;28;20547;-62
2023/04/21 05:45:59;;;;;;;4.93;4.23;;;;;;;;;;5090943;28;20505;-62
2023/04/21 05:48:26;;;;;;;6.43;4.10;;;;;;;;;;5093163;28;20058;-62
2023/04/21 05:50:52;;;;;;;5.27;3.03;;;;;;;;;;5093258;28;20024;-62
2023/04/21 05:53:19;;;;;;;6.63;4.93;;;;;;;;;;5093310;28;20024;-62
2023/04/21 05:55:46;;;;;;;5.97;4.33;;;;;;;;;;5091799;28;20411;-63
2023/04/21 05:58:13;;;;;;;8.93;4.80;;;;;;;;;;5090477;28;20044;-62
2023/04/21 06:00:40;;;;;;;8.70;5.07;;;;;;;;;;5088173;28;20031;-63
2023/04/21 06:03:06;;;;;;;5.17;3.43;;;;;;;;;;5088091;28;20028;-62
2023/04/21 06:05:33;;;;;;;5.93;4.23;;;;;;;;;;5087975;28;20352;-62
2023/04/21 06:08:00;;;;;;;9.87;3.73;;;;;;;;;;5089711;28;20509;-62
2023/04/21 06:10:27;;;;;;;5.43;3.17;;;;;;;;;;5092802;28;20035;-62
2023/04/21 06:12:53;;;;;;;7.83;4.47;;;;;;;;;;5092872;28;20024;-62
2023/04/21 06:15:20;;;;;;;8.47;4.67;;;;;;;;;;5092659;28;20028;-62
2023/04/21 06:17:47;;;;;;;6.63;4.80;;;;;;;;;;5092804;28;20123;-62
2023/04/21 06:20:14;;;;;;;7.03;4.83;;;;;;;;;;5091052;28;20489;-62
2023/04/21 06:22:40;;;;;;;6.83;4.30;;;;;;;;;;5087493;28;20039;-62
2023/04/21 06:25:07;;;;;;;5.63;4.13;;;;;;;;;;5087859;28;20059;-62
2023/04/21 06:27:34;;;;;;;5.27;4.60;;;;;;;;;;5087676;28;20474;-62
2023/04/21 06:30:01;;;;;;;7.90;4.10;;;;;;;;;;5088361;28;20039;-63
2023/04/21 06:32:28;;;;;;;4.87;3.13;;;;;;;;;;5092346;28;20028;-62
2023/04/21 06:34:55;;;;;;;8.17;4.97;;;;;;;;;;5092515;28;20522;-62
2023/04/21 06:37:21;;;;;;;4.10;3.67;;;;;;;;;;5092599;28;20020;-62
2023/04/21 06:39:48;;;;;;;11.43;4.73;;;;;;;;;;5092241;28;20028;-62
2023/04/21 06:42:15;;;;;;;6.20;4.57;;;;;;;;;;5091294;28;20030;-62
2023/04/21 06:44:42;;;;;;;10.57;4.87;;;;;;;;;;5087474;28;20032;-62
2023/04/21 06:47:09;;;;;;;8.90;4.77;;;;;;;;;;5087265;28;20028;-62
2023/04/21 06:49:36;;;;;;;5.93;4.70;;;;;;;;;;5087041;28;20578;-62
2023/04/21 06:52:03;;;;;;;8.30;5.47;;;;;;;;;;5087690;28;20031;-62
2023/04/21 06:54:30;;;;;;;9.27;5.53;;;;;;;;;;5092485;28;20020;-62
2023/04/21 06:56:56;;;;;;;5.67;3.57;;;;;;;;;;5092494;28;20095;-62
2023/04/21 06:59:23;;;;;;;6.83;5.53;;;;;;;;;;5092331;28;20032;-62
2023/04/21 07:01:51;;;;;;;11.60;5.33;;;;;;;;;;5092331;28;20024;-62
2023/04/21 07:04:20;;;;;;;5.90;4.50;;;;;;;;;;5091882;28;20027;-62
2023/04/21 07:06:48;;;;;;;8.63;4.07;;;;;;;;;;5087018;28;20024;-62
2023/04/21 07:09:14;;;;;;;6.70;5.37;;;;;;;;;;5087156;28;20036;-62
2023/04/21 07:11:41;;;;;;;9.13;5.60;;;;;;;;;;5087309;28;20038;-62
2023/04/21 07:14:08;;;;;;;8.63;5.13;;;;;;;;;;5087254;28;20038;-62
2023/04/21 07:16:34;;;;;;;5.47;3.93;;;;;;;;;;5092101;28;20461;-62
2023/04/21 07:19:01;;;;;;;8.53;5.43;;;;;;;;;;5092260;28;20351;-62
2023/04/21 07:21:30;;;;;;;7.07;5.40;;;;;;;;;;5092049;28;20048;-62
2023/04/21 07:23:57;;;;;;;7.77;6.17;;;;;;;;;;5092105;28;20044;-62
2023/04/21 07:26:24;;;;;;;5.03;3.93;;;;;;;;;;5092083;28;20040;-62
2023/04/21 07:28:51;;;;;;;7.53;5.17;;;;;;;;;;5087010;28;20123;-62
2023/04/21 07:31:18;;;;;;;3.50;2.80;;;;;;;;;;5087061;28;20057;-62
2023/04/21 07:33:45;;;;;;;5.37;4.20;;;;;;;;;;5087027;28;20050;-62
2023/04/21 07:36:12;;;;;;;8.23;5.27;;;;;;;;;;5087047;28;20027;-62
2023/04/21 07:38:42;;;;;;;6.33;4.73;;;;;;;;;;5090731;28;20051;-62
2023/04/21 07:41:10;;;;;;;5.80;4.80;;;;;;;;;;5091946;28;20046;-62
2023/04/21 07:43:37;;;;;;;7.23;4.60;;;;;;;;;;5091935;28;20521;-62
2023/04/21 07:46:04;;;;;;;6.77;5.23;;;;;;;;;;5091893;28;20032;-62
2023/04/21 07:48:31;;;;;;;6.03;4.07;;;;;;;;;;5091873;28;20028;-62
2023/04/21 07:50:59;;;;;;;4.30;3.53;;;;;;;;;;5087158;28;20028;-62
2023/04/21 07:53:26;;;;;;;5.47;4.27;;;;;;;;;;5089236;28;20435;-62
2023/04/21 07:55:53;;;;;;;7.97;4.27;;;;;;;;;;5090331;28;20072;-62
2023/04/21 07:58:20;;;;;;;9.70;3.93;;;;;;;;;;5090379;28;20020;-61
2023/04/21 08:00:47;;;;;;;4.93;4.23;;;;;;;;;;5094285;28;20055;-62
2023/04/21 08:03:14;;;;;;;10.00;5.27;;;;;;;;;;5095399;28;20016;-62
2023/04/21 08:05:40;;;;;;;7.00;4.43;;;;;;;;;;5095558;28;20027;-62
2023/04/21 08:08:07;;;;;;;4.97;3.80;;;;;;;;;;5095261;28;20064;-62
2023/04/21 08:10:34;;;;;;;6.03;4.43;;;;;;;;;;5095228;28;20036;-62
2023/04/21 08:13:02;;;;;;;6.70;3.83;;;;;;;;;;5090538;28;20020;-62
2023/04/21 08:15:28;;;;;;;5.87;4.93;;;;;;;;;;5090263;28;20024;-62
2023/04/21 08:17:55;;;;;;;4.67;3.93;;;;;;;;;;5090015;28;20069;-62
2023/04/21 08:20:22;;;;;;;8.50;6.27;;;;;;;;;;5089948;28;20367;-62
2023/04/21 08:22:49;;;;;;;8.00;5.67;;;;;;;;;;5093115;28;20023;-62
2023/04/21 08:25:15;;;;;;;9.63;5.50;;;;;;;;;;5094878;28;20355;-63
2023/04/21 08:27:42;;;;;;;7.70;5.87;;;;;;;;;;5095015;28;20397;-62
2023/04/21 08:30:09;;;;;;;12.27;5.70;;;;;;;;;;5094254;28;20075;-64
2023/04/21 08:32:36;;;;;;;8.10;6.07;;;;;;;;;;5094841;28;20535;-62
2023/04/21 08:35:03;;;;;;;5.67;4.47;;;;;;;;;;5091356;28;20554;-62
2023/04/21 08:37:30;;;;;;;7.77;5.03;;;;;;;;;;5089729;28;20023;-62
2023/04/21 08:39:56;;;;;;;9.67;6.03;;;;;;;;;;5089638;28;20039;-62
2023/04/21 08:42:23;;;;;;;7.30;5.90;;;;;;;;;;5089629;28;20534;-62
2023/04/21 08:44:50;;;;;;;7.43;5.47;;;;;;;;;;5092161;28;20108;-62
2023/04/21 08:47:17;;;;;;;10.67;6.10;;;;;;;;;;5093871;28;20020;-62
2023/04/21 08:49:44;;;;;;;6.10;5.23;;;;;;;;;;5094577;28;20032;-62
2023/04/21 08:52:12;;;;;;;8.03;5.33;;;;;;;;;;5094409;28;20024;-63
2023/04/21 08:54:40;;;;;;;7.00;5.53;;;;;;;;;;5094368;28;20027;-62
2023/04/21 08:57:07;;;;;;;10.60;6.67;;;;;;;;;;5091485;28;20024;-63
2023/04/21 08:59:33;;;;;;;11.13;6.87;;;;;;;;;;5089261;28;20020;-62
2023/04/21 09:02:07;;;;;;;9.47;5.70;;;;;;;;;;5089181;28;20027;-62
2023/04/21 09:04:34;;;;;;;5.03;4.30;;;;;;;;;;5088779;28;20031;-62
2023/04/21 09:07:01;;;;;;;8.63;5.87;;;;;;;;;;5091047;28;20571;-62
2023/04/21 09:09:27;;;;;;;8.73;5.67;;;;;;;;;;5094088;28;20028;-62
2023/04/21 09:11:56;;;;;;;5.73;3.93;;;;;;;;;;5093929;28;20024;-62
2023/04/21 09:14:22;;;;;;;9.93;6.30;;;;;;;;;;5093707;28;20468;-62
2023/04/21 09:16:59;;;;;;;9.27;5.77;;;;;;;;;;5093696;28;20432;-62
2023/04/21 09:19:29;;;;;;;6.63;5.93;;;;;;;;;;5091237;28;20016;-62
2023/04/21 09:21:56;;;;;;;6.47;5.37;;;;;;;;;;5088705;28;20016;-62
2023/04/21 09:24:23;;;;;;;8.73;6.30;;;;;;;;;;5088740;28;20021;-61
2023/04/21 09:26:51;;;;;;;7.40;6.03;;;;;;;;;;5088721;28;20036;-62
2023/04/21 09:29:18;;;;;;;8.63;5.50;;;;;;;;;;5090670;28;20486;-62
2023/04/21 09:31:44;;;;;;;9.27;6.37;;;;;;;;;;5093558;28;20093;-62
2023/04/21 09:34:19;;;;;;;10.80;5.50;;;;;;;;;;5093233;28;20031;-62
2023/04/21 09:36:46;;;;;;;17.13;7.60;;;;;;;;;;5093615;28;20411;-62
2023/04/21 09:39:13;;;;;;;10.47;5.67;;;;;;;;;;5093230;28;20528;-62
2023/04/21 09:41:40;;;;;;;7.00;5.50;;;;;;;;;;5090945;28;20024;-62
2023/04/21 09:44:07;;;;;;;13.77;8.23;;;;;;;;;;5088345;28;20032;-62
2023/04/21 09:46:35;;;;;;;17.17;7.27;;;;;;;;;;5088176;28;20073;-61
2023/04/21 09:49:02;;;;;;;8.10;6.50;;;;;;;;;;5088134;28;20382;-62
2023/04/21 09:51:30;;;;;;;13.07;7.87;;;;;;;;;;5089924;28;20024;-61
2023/04/21 09:53:59;;;;;;;20.83;10.13;;;;;;;;;;5093316;28;20492;-62
2023/04/21 09:56:30;;;;;;;8.63;6.87;;;;;;;;;;5093097;28;20042;-62
2023/04/21 09:58:58;;;;;;;11.93;6.87;;;;;;;;;;5093204;28;20062;-62
2023/04/21 10:01:26;;;;;;;5.63;4.90;;;;;;;;;;5093078;28;20497;-62
2023/04/21 10:03:53;;;;;;;12.50;8.03;;;;;;;;;;5090335;28;20098;-62
2023/04/21 10:06:20;;;;;;;8.97;5.97;;;;;;;;;;5088505;28;20378;-62
2023/04/21 10:08:47;;;;;;;13.37;7.30;;;;;;;;;;5087787;28;20036;-61
2023/04/21 10:11:14;;;;;;;9.57;6.83;;;;;;;;;;5088041;28;20024;-62
2023/04/21 10:13:41;;;;;;;7.67;6.00;;;;;;;;;;5089184;28;20028;-62
2023/04/21 10:16:09;;;;;;;14.87;5.07;;;;;;;;;;5092254;28;20028;-62
2023/04/21 10:18:37;;;;;;;8.93;6.23;;;;;;;;;;5092546;28;20035;-62
2023/04/21 10:21:05;;;;;;;7.20;6.33;;;;;;;;;;5092701;28;20032;-62
2023/04/21 10:23:32;;;;;;;15.23;6.97;;;;;;;;;;5092911;28;20024;-61
2023/04/21 10:26:02;;;;;;;6.50;5.20;;;;;;;;;;5090723;28;20379;-61
2023/04/21 10:28:41;;;;;;;10.50;7.10;;;;;;;;;;5087501;28;20038;-62
2023/04/21 10:31:18;;;;;;;15.87;6.67;;;;;;;;;;5087506;28;20028;-62
2023/04/21 10:34:05;;;;;;;7.53;5.83;;;;;;;;;;5087532;28;20046;-61
2023/04/21 10:36:33;;;;;;;9.63;6.73;;;;;;;;;;5078813;28;20356;-62
2023/04/21 10:39:03;;;;;;;24.97;7.37;;;;;;;;;;5092501;28;20047;-62
2023/04/21 10:41:31;;;;;;;11.83;7.40;;;;;;;;;;5091981;28;20020;-62
2023/04/21 10:44:07;;;;;;;10.67;4.60;;;;;;;;;;5092454;28;20026;-62
2023/04/21 10:46:40;;;;;;;8.87;6.83;;;;;;;;;;5092431;28;20490;-62
2023/04/21 10:49:11;;;;;;;6.37;5.63;;;;;;;;;;5089044;28;20036;-61
2023/04/21 10:51:56;;;;;;;12.13;7.00;;;;;;;;;;5087348;28;20562;-62
2023/04/21 10:54:24;;;;;;;8.80;7.32;;;;;;;;;;5087601;28;20049;-62
2023/04/21 10:56:58;;;;;;;11.77;7.00;;;;;;;;;;5087176;28;20036;-62
2023/04/21 10:59:26;;;;;;;9.10;7.20;;;;;;;;;;5091145;28;20078;-62
2023/04/21 11:01:54;;;;;;;8.77;5.47;;;;;;;;;;5092379;28;20047;-62
2023/04/21 11:04:22;;;;;;;9.10;5.90;;;;;;;;;;5091741;28;20020;-62
2023/04/21 11:07:07;;;;;;;12.50;7.80;;;;;;;;;;5092295;28;20035;-62
2023/04/21 11:09:34;;;;;;;9.05;7.18;;;;;;;;;;5092377;28;20024;-62
2023/04/21 11:12:03;;;;;;;9.23;6.97;;;;;;;;;;5087430;28;20032;-61
2023/04/21 11:14:30;;;;;;;16.57;6.70;;;;;;;;;;5087200;28;20105;-62
2023/04/21 11:16:57;;;;;;;7.63;5.93;;;;;;;;;;5086961;28;20024;-62
2023/04/21 11:19:24;;;;;;;6.57;5.50;;;;;;;;;;5087115;28;20024;-62
2023/04/21 11:21:53;;;;;;;9.33;6.57;;;;;;;;;;5090889;28;20036;-62
2023/04/21 11:24:21;;;;;;;10.70;6.57;;;;;;;;;;5092521;28;20438;-61
2023/04/21 11:26:47;;;;;;;11.60;6.50;;;;;;;;;;5092134;28;20024;-62
2023/04/21 11:29:15;;;;;;;10.60;7.57;;;;;;;;;;5095910;28;20435;-62
2023/04/21 11:31:44;;;;;;;7.93;6.47;;;;;;;;;;5095485;28;20489;-62
2023/04/21 11:34:11;;;;;;;6.03;4.83;;;;;;;;;;5091434;28;20032;-63
2023/04/21 11:36:39;;;;;;;9.00;6.73;;;;;;;;;;5090965;28;20128;-62
2023/04/21 11:39:09;;;;;;;5.63;5.03;;;;;;;;;;5090563;28;20386;-63
2023/04/21 11:41:39;;;;;;;7.43;5.57;;;;;;;;;;5090758;28;20340;-63
2023/04/21 11:44:06;;;;;;;10.67;6.43;;;;;;;;;;5094563;28;20375;-62
2023/04/21 11:46:35;;;;;;;10.10;5.57;;;;;;;;;;5095414;28;20035;-62
2023/04/21 11:49:03;;;;;;;6.97;5.70;;;;;;;;;;5095649;28;20566;-62
2023/04/21 11:51:33;;;;;;;10.73;5.13;;;;;;;;;;5095708;28;20470;-62
2023/04/21 11:54:00;;;;;;;12.43;6.33;;;;;;;;;;5095633;28;20343;-62
2023/04/21 11:56:27;;;;;;;6.13;4.70;;;;;;;;;;5091109;28;20020;-62
2023/04/21 11:58:54;;;;;;;13.63;7.33;;;;;;;;;;5090323;28;20107;-62
2023/04/21 12:01:21;;;;;;;7.00;6.13;;;;;;;;;;5090061;28;20028;-61
2023/04/21 12:03:55;;;;;;;8.43;5.97;;;;;;;;;;5089936;28;20111;-61
2023/04/21 12:06:22;;;;;;;7.33;5.90;;;;;;;;;;5094063;28;20470;-62
2023/04/21 12:08:54;;;;;;;7.20;4.93;;;;;;;;;;5095133;28;20032;-62
2023/04/21 12:11:21;;;;;;;8.97;6.53;;;;;;;;;;5095024;28;20017;-62
2023/04/21 12:13:48;;;;;;;14.27;7.00;;;;;;;;;;5095021;28;20024;-61
2023/04/21 12:16:15;;;;;;;6.97;5.23;;;;;;;;;;5094584;28;20488;-62
2023/04/21 12:18:43;;;;;;;9.47;4.93;;;;;;;;;;5090568;28;20020;-61
2023/04/21 12:21:09;;;;;;;7.90;5.03;;;;;;;;;;5089884;28;20034;-61
2023/04/21 12:23:37;;;;;;;11.87;6.00;;;;;;;;;;5089855;28;20032;-62
2023/04/21 12:26:04;;;;;;;6.47;5.60;;;;;;;;;;5089651;28;20058;-61
2023/04/21 12:28:31;;;;;;;9.10;6.43;;;;;;;;;;5093038;28;20027;-61
2023/04/21 12:30:58;;;;;;;11.73;7.23;;;;;;;;;;5094527;28;20028;-62
2023/04/21 12:33:25;;;;;;;10.77;6.70;;;;;;;;;;5094494;28;20070;-62
2023/04/21 12:35:51;;;;;;;14.80;6.47;;;;;;;;;;5094648;28;20339;-62
2023/04/21 12:38:18;;;;;;;7.50;5.57;;;;;;;;;;5094269;28;20016;-62
2023/04/21 12:40:45;;;;;;;18.47;7.00;;;;;;;;;;5090910;28;20023;-62
2023/04/21 12:43:12;;;;;;;6.10;5.17;;;;;;;;;;5089581;28;20106;-62
2023/04/21 12:45:38;;;;;;;5.57;4.43;;;;;;;;;;5089286;28;20024;-62
2023/04/21 12:48:05;;;;;;;4.70;4.17;;;;;;;;;;5088837;28;20024;-62
2023/04/21 12:50:32;;;;;;;9.97;5.63;;;;;;;;;;5092090;28;20035;-62
2023/04/21 12:52:59;;;;;;;6.80;5.90;;;;;;;;;;5094286;28;20367;-62
2023/04/21 12:55:26;;;;;;;8.83;5.80;;;;;;;;;;5094284;28;20020;-61
2023/04/21 12:57:53;;;;;;;11.53;6.47;;;;;;;;;;5094104;28;20104;-62
2023/04/21 13:00:21;;;;;;;13.37;7.27;;;;;;;;;;5094123;28;20020;-62
2023/04/21 13:02:47;;;;;;;17.10;7.77;;;;;;;;;;5091051;28;20028;-62
2023/04/21 13:05:14;;;;;;;21.60;8.53;;;;;;;;;;5088575;28;20028;-62
2023/04/21 13:07:41;;;;;;;40.63;7.33;;;;;;;;;;5089153;28;20031;-62
2023/04/21 13:10:08;;;;;;;13.87;10.87;;;;;;;;;;5088799;28;20042;-62
2023/04/21 13:12:35;;;;;;;10.20;8.33;;;;;;;;;;5091353;28;20099;-61
2023/04/21 13:15:02;;;;;;;10.40;8.33;;;;;;;;;;5093976;28;20020;-61
2023/04/21 13:17:29;;;;;;;11.90;8.60;;;;;;;;;;5093790;28;20084;-63
2023/04/21 13:19:56;;;;;;;10.63;7.93;;;;;;;;;;5093930;28;20103;-62
2023/04/21 13:22:23;;;;;;;7.20;6.13;;;;;;;;;;5093156;28;20423;-62
2023/04/21 13:24:50;;;;;;;8.53;6.10;;;;;;;;;;5091195;28;20493;-62
2023/04/21 13:27:17;;;;;;;11.93;8.47;;;;;;;;;;5088665;28;20023;-62
2023/04/21 13:29:44;;;;;;;12.50;10.07;;;;;;;;;;5088450;28;20036;-62
2023/04/21 13:32:11;;;;;;;10.73;9.23;;;;;;;;;;5088591;28;20028;-61
2023/04/21 13:34:37;;;;;;;14.97;9.37;;;;;;;;;;5090186;28;20390;-63
2023/04/21 13:37:05;;;;;;;16.87;6.40;;;;;;;;;;5093425;28;20028;-62
2023/04/21 13:39:31;;;;;;;10.17;7.37;;;;;;;;;;5093128;28;20193;-62
2023/04/21 13:41:58;;;;;;;13.17;7.50;;;;;;;;;;5093492;28;20035;-62
2023/04/21 13:44:26;;;;;;;20.33;8.93;;;;;;;;;;5093343;28;20040;-62
2023/04/21 13:46:53;;;;;;;13.00;7.83;;;;;;;;;;5091205;28;20030;-62
2023/04/21 13:49:20;;;;;;;29.73;8.53;;;;;;;;;;5087767;28;20028;-62
2023/04/21 13:51:47;;;;;;;9.47;8.17;;;;;;;;;;5087543;28;20438;-62
2023/04/21 13:54:13;;;;;;;15.30;8.47;;;;;;;;;;5087935;28;20470;-62
2023/04/21 13:56:40;;;;;;;15.93;11.53;;;;;;;;;;5089243;28;20478;-62
2023/04/21 13:59:09;;;;;;;19.63;10.67;;;;;;;;;;5093059;28;20656;-62
2023/04/21 14:01:36;;;;;;;14.90;10.57;;;;;;;;;;5092960;28;20012;-63
2023/04/21 14:04:03;;;;;;;17.20;11.17;;;;;;;;;;5093014;28;20024;-62
2023/04/21 14:06:30;;;;;;;16.03;10.43;;;;;;;;;;5093011;28;20051;-62
2023/04/21 14:08:57;;;;;;;12.37;8.27;;;;;;;;;;5091131;28;20085;-62
2023/04/21 14:11:24;;;;;;;11.97;8.63;;;;;;;;;;5087186;28;20046;-63
2023/04/21 14:13:50;;;;;;;11.00;6.93;;;;;;;;;;5087799;28;20688;-62
2023/04/21 14:16:17;;;;;;;12.23;8.60;;;;;;;;;;5087810;28;20032;-62
2023/04/21 14:18:45;;;;;;;10.00;7.43;;;;;;;;;;5088528;28;20096;-63
2023/04/21 14:21:12;;;;;;;13.83;7.37;;;;;;;;;;5092749;28;20012;-62
2023/04/21 14:23:39;;;;;;;12.37;7.97;;;;;;;;;;5092689;28;20480;-62
2023/04/21 14:26:06;;;;;;;8.07;6.17;;;;;;;;;;5092626;28;20111;-63
2023/04/21 14:28:33;;;;;;;10.60;7.13;;;;;;;;;;5091876;28;20029;-62
2023/04/21 14:31:00;;;;;;;9.13;6.57;;;;;;;;;;5091636;28;20024;-62
2023/04/21 14:33:28;;;;;;;13.13;6.40;;;;;;;;;;5087381;28;20084;-63
2023/04/21 14:35:57;;;;;;;10.93;6.83;;;;;;;;;;5087432;28;20390;-63
2023/04/21 14:38:24;;;;;;;9.77;5.40;;;;;;;;;;5087409;28;20107;-63